sensor_id;sensor_type;location;lat;lon;timestamp;P1;durP1;ratioP1;P2;durP2;ratioP2
56255;SDS011;57229;51.432;-2.598;2023-01-04T00:00:28;4.68;;;2.60;;
56255;SDS011;57229;51.432;-2.598;2023-01-04T00:02:57;4.00;;;2.40;;
56255;SDS011;57229;51.432;-2.598;2023-01-04T00:05:23;2.75;;;2.30;;
56255;SDS011;57229;51.432;-2.598;2023-01-04T00:07:49;5.70;;;2.40;;
56255;SDS011;57229;51.432;-2.598;2023-01-04T00:10:15;6.80;;;2.60;;
56255;SDS011;57229;51.432;-2.598;2023-01-04T00:12:41;5.13;;;2.25;;
56255;SDS011;57229;51.432;-2.598;2023-01-04T00:15:10;5.10;;;2.35;;
56255;SDS011;57229;51.432;-2.598;2023-01-04T00:17:36;2.90;;;2.13;;
56255;SDS011;57229;51.432;-2.598;2023-01-04T00:20:13;4.93;;;2.22;;
56255;SDS011;57229;51.432;-2.598;2023-01-04T00:22:42;4.80;;;2.30;;
56255;SDS011;57229;51.432;-2.598;2023-01-04T00:25:08;3.85;;;2.17;;
56255;SDS011;57229;51.432;-2.598;2023-01-04T00:27:34;5.43;;;2.45;;
56255;SDS011;57229;51.432;-2.598;2023-01-04T00:30:24;4.15;;;2.50;;
56255;SDS011;57229;51.432;-2.598;2023-01-04T00:43:18;6.93;;;2.40;;
56255;SDS011;57229;51.432;-2.598;2023-01-04T00:45:44;9.88;;;2.30;;
56255;SDS011;57229;51.432;-2.598;2023-01-04T00:51:02;6.18;;;2.95;;
56255;SDS011;57229;51.432;-2.598;2023-01-04T00:53:28;6.13;;;2.60;;
56255;SDS011;57229;51.432;-2.598;2023-01-04T00:55:57;4.10;;;2.78;;
56255;SDS011;57229;51.432;-2.598;2023-01-04T00:58:24;3.22;;;2.35;;
56255;SDS011;57229;51.432;-2.598;2023-01-04T01:00:50;4.82;;;2.35;;
56255;SDS011;57229;51.432;-2.598;2023-01-04T01:03:16;4.40;;;2.25;;
56255;SDS011;57229;51.432;-2.598;2023-01-04T01:12:03;6.97;;;2.55;;
56255;SDS011;57229;51.432;-2.598;2023-01-04T01:14:44;5.13;;;2.53;;
56255;SDS011;57229;51.432;-2.598;2023-01-04T01:17:16;4.22;;;2.88;;
56255;SDS011;57229;51.432;-2.598;2023-01-04T01:29:16;3.88;;;2.40;;
56255;SDS011;57229;51.432;-2.598;2023-01-04T01:31:43;4.65;;;2.20;;
56255;SDS011;57229;51.432;-2.598;2023-01-04T01:34:09;4.25;;;2.45;;
56255;SDS011;57229;51.432;-2.598;2023-01-04T01:36:35;4.82;;;2.60;;
56255;SDS011;57229;51.432;-2.598;2023-01-04T01:42:07;4.15;;;2.40;;
56255;SDS011;57229;51.432;-2.598;2023-01-04T01:45:33;3.22;;;2.40;;
56255;SDS011;57229;51.432;-2.598;2023-01-04T01:58:36;4.07;;;2.50;;
56255;SDS011;57229;51.432;-2.598;2023-01-04T02:01:14;4.65;;;2.88;;
56255;SDS011;57229;51.432;-2.598;2023-01-04T02:03:42;4.70;;;2.30;;
56255;SDS011;57229;51.432;-2.598;2023-01-04T02:06:32;4.35;;;2.38;;
56255;SDS011;57229;51.432;-2.598;2023-01-04T02:09:07;4.28;;;2.30;;
56255;SDS011;57229;51.432;-2.598;2023-01-04T02:43:47;3.33;;;2.10;;
56255;SDS011;57229;51.432;-2.598;2023-01-04T02:46:52;3.70;;;2.25;;
56255;SDS011;57229;51.432;-2.598;2023-01-04T03:27:15;4.55;;;2.33;;
56255;SDS011;57229;51.432;-2.598;2023-01-04T03:33:43;2.55;;;1.85;;
56255;SDS011;57229;51.432;-2.598;2023-01-04T03:43:34;5.20;;;2.08;;
56255;SDS011;57229;51.432;-2.598;2023-01-04T03:46:32;2.00;;;1.90;;
56255;SDS011;57229;51.432;-2.598;2023-01-04T04:06:30;3.58;;;2.00;;
56255;SDS011;57229;51.432;-2.598;2023-01-04T04:25:58;2.10;;;1.98;;
56255;SDS011;57229;51.432;-2.598;2023-01-04T04:28:24;2.13;;;1.80;;
56255;SDS011;57229;51.432;-2.598;2023-01-04T04:30:50;2.05;;;1.90;;
56255;SDS011;57229;51.432;-2.598;2023-01-04T04:33:16;2.25;;;2.00;;
56255;SDS011;57229;51.432;-2.598;2023-01-04T04:35:42;2.15;;;1.95;;
56255;SDS011;57229;51.432;-2.598;2023-01-04T04:41:26;2.13;;;1.92;;
56255;SDS011;57229;51.432;-2.598;2023-01-04T05:10:27;2.10;;;2.00;;
56255;SDS011;57229;51.432;-2.598;2023-01-04T05:12:53;2.13;;;1.95;;
56255;SDS011;57229;51.432;-2.598;2023-01-04T05:15:49;2.00;;;1.90;;
56255;SDS011;57229;51.432;-2.598;2023-01-04T05:18:18;2.00;;;1.90;;
56255;SDS011;57229;51.432;-2.598;2023-01-04T05:20:45;2.00;;;1.90;;
56255;SDS011;57229;51.432;-2.598;2023-01-04T05:27:26;1.90;;;1.80;;
56255;SDS011;57229;51.432;-2.598;2023-01-04T05:33:12;2.10;;;2.00;;
56255;SDS011;57229;51.432;-2.598;2023-01-04T05:35:38;2.00;;;1.90;;
56255;SDS011;57229;51.432;-2.598;2023-01-04T05:38:04;2.13;;;1.98;;
56255;SDS011;57229;51.432;-2.598;2023-01-04T05:40:33;2.20;;;2.00;;
56255;SDS011;57229;51.432;-2.598;2023-01-04T05:43:01;2.10;;;2.00;;
56255;SDS011;57229;51.432;-2.598;2023-01-04T05:45:27;2.00;;;1.90;;
56255;SDS011;57229;51.432;-2.598;2023-01-04T05:47:53;2.83;;;2.03;;
56255;SDS011;57229;51.432;-2.598;2023-01-04T05:50:21;2.65;;;1.90;;
56255;SDS011;57229;51.432;-2.598;2023-01-04T05:52:48;1.92;;;1.80;;
56255;SDS011;57229;51.432;-2.598;2023-01-04T05:55:14;3.28;;;1.90;;
56255;SDS011;57229;51.432;-2.598;2023-01-04T05:57:41;2.13;;;2.00;;
56255;SDS011;57229;51.432;-2.598;2023-01-04T06:00:07;2.05;;;1.90;;
56255;SDS011;57229;51.432;-2.598;2023-01-04T06:02:34;2.10;;;2.00;;
56255;SDS011;57229;51.432;-2.598;2023-01-04T06:05:00;2.10;;;1.90;;
56255;SDS011;57229;51.432;-2.598;2023-01-04T06:07:26;2.15;;;1.98;;
56255;SDS011;57229;51.432;-2.598;2023-01-04T06:09:53;2.35;;;2.10;;
56255;SDS011;57229;51.432;-2.598;2023-01-04T06:12:19;2.42;;;2.17;;
56255;SDS011;57229;51.432;-2.598;2023-01-04T06:14:47;2.45;;;2.20;;
56255;SDS011;57229;51.432;-2.598;2023-01-04T06:17:13;2.10;;;2.00;;
56255;SDS011;57229;51.432;-2.598;2023-01-04T06:19:42;2.53;;;2.15;;
56255;SDS011;57229;51.432;-2.598;2023-01-04T06:27:57;3.22;;;2.22;;
56255;SDS011;57229;51.432;-2.598;2023-01-04T06:30:24;2.65;;;2.33;;
56255;SDS011;57229;51.432;-2.598;2023-01-04T06:33:07;4.80;;;2.30;;
56255;SDS011;57229;51.432;-2.598;2023-01-04T06:35:33;6.40;;;2.72;;
56255;SDS011;57229;51.432;-2.598;2023-01-04T06:38:00;5.32;;;2.38;;
56255;SDS011;57229;51.432;-2.598;2023-01-04T06:40:51;6.22;;;2.47;;
56255;SDS011;57229;51.432;-2.598;2023-01-04T06:43:19;7.50;;;2.70;;
56255;SDS011;57229;51.432;-2.598;2023-01-04T06:45:48;4.57;;;2.70;;
56255;SDS011;57229;51.432;-2.598;2023-01-04T06:48:13;4.38;;;2.45;;
56255;SDS011;57229;51.432;-2.598;2023-01-04T06:50:40;9.25;;;3.42;;
56255;SDS011;57229;51.432;-2.598;2023-01-04T06:53:10;6.97;;;3.00;;
56255;SDS011;57229;51.432;-2.598;2023-01-04T06:55:54;9.05;;;3.08;;
56255;SDS011;57229;51.432;-2.598;2023-01-04T06:58:20;6.70;;;2.90;;
56255;SDS011;57229;51.432;-2.598;2023-01-04T07:01:31;6.82;;;2.70;;
56255;SDS011;57229;51.432;-2.598;2023-01-04T07:03:38;11.57;;;3.05;;
56255;SDS011;57229;51.432;-2.598;2023-01-04T07:06:04;8.35;;;2.75;;
56255;SDS011;57229;51.432;-2.598;2023-01-04T07:08:41;7.00;;;2.97;;
56255;SDS011;57229;51.432;-2.598;2023-01-04T07:11:07;8.57;;;3.17;;
56255;SDS011;57229;51.432;-2.598;2023-01-04T07:13:33;9.57;;;3.30;;
56255;SDS011;57229;51.432;-2.598;2023-01-04T07:16:01;13.40;;;3.47;;
56255;SDS011;57229;51.432;-2.598;2023-01-04T07:18:27;7.15;;;3.30;;
56255;SDS011;57229;51.432;-2.598;2023-01-04T07:20:53;8.30;;;2.90;;
56255;SDS011;57229;51.432;-2.598;2023-01-04T07:23:19;9.88;;;2.90;;
56255;SDS011;57229;51.432;-2.598;2023-01-04T07:25:45;11.40;;;3.55;;
56255;SDS011;57229;51.432;-2.598;2023-01-04T07:31:28;10.13;;;3.30;;
56255;SDS011;57229;51.432;-2.598;2023-01-04T07:33:54;9.60;;;3.17;;
56255;SDS011;57229;51.432;-2.598;2023-01-04T07:36:19;8.63;;;3.47;;
56255;SDS011;57229;51.432;-2.598;2023-01-04T07:38:45;10.57;;;3.80;;
56255;SDS011;57229;51.432;-2.598;2023-01-04T07:41:11;11.25;;;3.63;;
56255;SDS011;57229;51.432;-2.598;2023-01-04T07:44:16;13.02;;;3.65;;
56255;SDS011;57229;51.432;-2.598;2023-01-04T07:47:11;12.38;;;3.70;;
56255;SDS011;57229;51.432;-2.598;2023-01-04T07:49:38;12.68;;;3.88;;
56255;SDS011;57229;51.432;-2.598;2023-01-04T07:52:04;12.07;;;3.53;;
56255;SDS011;57229;51.432;-2.598;2023-01-04T07:54:30;9.43;;;3.17;;
56255;SDS011;57229;51.432;-2.598;2023-01-04T07:56:56;12.10;;;3.65;;
56255;SDS011;57229;51.432;-2.598;2023-01-04T07:59:21;12.40;;;3.45;;
56255;SDS011;57229;51.432;-2.598;2023-01-04T08:01:51;16.70;;;3.78;;
56255;SDS011;57229;51.432;-2.598;2023-01-04T08:04:16;11.82;;;3.70;;
56255;SDS011;57229;51.432;-2.598;2023-01-04T08:06:46;14.45;;;4.13;;
56255;SDS011;57229;51.432;-2.598;2023-01-04T08:09:13;11.27;;;3.72;;
56255;SDS011;57229;51.432;-2.598;2023-01-04T08:11:40;11.65;;;3.60;;
56255;SDS011;57229;51.432;-2.598;2023-01-04T08:14:06;11.38;;;3.63;;
56255;SDS011;57229;51.432;-2.598;2023-01-04T08:16:33;12.13;;;3.58;;
56255;SDS011;57229;51.432;-2.598;2023-01-04T08:21:49;16.38;;;4.10;;
56255;SDS011;57229;51.432;-2.598;2023-01-04T08:24:25;12.20;;;4.15;;
56255;SDS011;57229;51.432;-2.598;2023-01-04T08:30:18;10.90;;;3.95;;
56255;SDS011;57229;51.432;-2.598;2023-01-04T08:32:44;13.38;;;4.13;;
56255;SDS011;57229;51.432;-2.598;2023-01-04T08:35:13;15.43;;;4.60;;
56255;SDS011;57229;51.432;-2.598;2023-01-04T08:37:41;17.63;;;4.28;;
56255;SDS011;57229;51.432;-2.598;2023-01-04T08:43:19;12.68;;;4.22;;
56255;SDS011;57229;51.432;-2.598;2023-01-04T08:45:54;13.88;;;4.45;;
56255;SDS011;57229;51.432;-2.598;2023-01-04T08:48:21;16.30;;;3.90;;
56255;SDS011;57229;51.432;-2.598;2023-01-04T08:51:02;9.65;;;3.58;;
56255;SDS011;57229;51.432;-2.598;2023-01-04T08:57:43;11.93;;;3.67;;
56255;SDS011;57229;51.432;-2.598;2023-01-04T09:00:09;16.65;;;4.57;;
56255;SDS011;57229;51.432;-2.598;2023-01-04T09:06:10;14.65;;;4.18;;
56255;SDS011;57229;51.432;-2.598;2023-01-04T09:09:01;15.65;;;4.13;;
56255;SDS011;57229;51.432;-2.598;2023-01-04T09:11:28;12.52;;;4.03;;
56255;SDS011;57229;51.432;-2.598;2023-01-04T09:14:03;12.50;;;4.45;;
56255;SDS011;57229;51.432;-2.598;2023-01-04T09:16:29;11.60;;;4.57;;
56255;SDS011;57229;51.432;-2.598;2023-01-04T09:32:46;13.48;;;4.40;;
56255;SDS011;57229;51.432;-2.598;2023-01-04T09:35:55;14.48;;;4.75;;
56255;SDS011;57229;51.432;-2.598;2023-01-04T09:38:45;11.40;;;4.85;;
56255;SDS011;57229;51.432;-2.598;2023-01-04T09:48:11;15.27;;;4.28;;
56255;SDS011;57229;51.432;-2.598;2023-01-04T09:50:44;16.30;;;4.57;;
56255;SDS011;57229;51.432;-2.598;2023-01-04T09:56:49;19.88;;;4.55;;
56255;SDS011;57229;51.432;-2.598;2023-01-04T10:06:38;19.65;;;4.78;;
56255;SDS011;57229;51.432;-2.598;2023-01-04T10:16:20;19.20;;;5.35;;
56255;SDS011;57229;51.432;-2.598;2023-01-04T10:27:03;17.63;;;4.85;;
56255;SDS011;57229;51.432;-2.598;2023-01-04T10:43:03;14.55;;;4.55;;
56255;SDS011;57229;51.432;-2.598;2023-01-04T10:52:58;13.98;;;4.68;;
56255;SDS011;57229;51.432;-2.598;2023-01-04T10:55:36;13.15;;;4.47;;
56255;SDS011;57229;51.432;-2.598;2023-01-04T11:09:30;11.77;;;4.63;;
56255;SDS011;57229;51.432;-2.598;2023-01-04T11:32:07;14.93;;;4.28;;
56255;SDS011;57229;51.432;-2.598;2023-01-04T11:39:02;17.40;;;5.03;;
56255;SDS011;57229;51.432;-2.598;2023-01-04T11:52:04;15.75;;;5.20;;
56255;SDS011;57229;51.432;-2.598;2023-01-04T12:08:02;12.57;;;4.25;;
56255;SDS011;57229;51.432;-2.598;2023-01-04T12:43:32;16.65;;;4.82;;
56255;SDS011;57229;51.432;-2.598;2023-01-04T13:03:45;18.25;;;4.97;;
56255;SDS011;57229;51.432;-2.598;2023-01-04T13:19:18;15.65;;;4.82;;
56255;SDS011;57229;51.432;-2.598;2023-01-04T13:46:56;12.93;;;5.18;;
56255;SDS011;57229;51.432;-2.598;2023-01-04T14:11:57;17.67;;;5.03;;
56255;SDS011;57229;51.432;-2.598;2023-01-04T14:28:41;21.85;;;5.30;;
56255;SDS011;57229;51.432;-2.598;2023-01-04T14:36:39;22.33;;;5.65;;
56255;SDS011;57229;51.432;-2.598;2023-01-04T14:42:53;15.73;;;4.95;;
56255;SDS011;57229;51.432;-2.598;2023-01-04T14:53:12;23.95;;;6.05;;
56255;SDS011;57229;51.432;-2.598;2023-01-04T14:55:39;22.70;;;5.57;;
56255;SDS011;57229;51.432;-2.598;2023-01-04T15:22:21;17.27;;;5.00;;
56255;SDS011;57229;51.432;-2.598;2023-01-04T15:45:43;15.45;;;4.47;;
56255;SDS011;57229;51.432;-2.598;2023-01-04T15:48:11;25.50;;;5.93;;
56255;SDS011;57229;51.432;-2.598;2023-01-04T16:14:44;16.73;;;5.03;;
56255;SDS011;57229;51.432;-2.598;2023-01-04T16:17:10;25.85;;;6.18;;
56255;SDS011;57229;51.432;-2.598;2023-01-04T16:19:39;25.20;;;5.40;;
56255;SDS011;57229;51.432;-2.598;2023-01-04T16:22:05;22.52;;;5.63;;
56255;SDS011;57229;51.432;-2.598;2023-01-04T16:27:46;22.48;;;5.55;;
56255;SDS011;57229;51.432;-2.598;2023-01-04T16:30:11;23.85;;;5.72;;
56255;SDS011;57229;51.432;-2.598;2023-01-04T16:32:47;21.63;;;6.78;;
56255;SDS011;57229;51.432;-2.598;2023-01-04T16:36:05;37.35;;;7.15;;
56255;SDS011;57229;51.432;-2.598;2023-01-04T16:38:39;30.85;;;6.47;;
56255;SDS011;57229;51.432;-2.598;2023-01-04T16:44:14;30.92;;;5.65;;
56255;SDS011;57229;51.432;-2.598;2023-01-04T16:46:39;21.80;;;6.00;;
56255;SDS011;57229;51.432;-2.598;2023-01-04T16:49:14;31.50;;;6.95;;
56255;SDS011;57229;51.432;-2.598;2023-01-04T16:51:41;28.60;;;6.65;;
56255;SDS011;57229;51.432;-2.598;2023-01-04T16:54:11;25.88;;;6.70;;
56255;SDS011;57229;51.432;-2.598;2023-01-04T16:56:47;27.75;;;6.13;;
56255;SDS011;57229;51.432;-2.598;2023-01-04T17:02:44;25.13;;;5.97;;
56255;SDS011;57229;51.432;-2.598;2023-01-04T17:07:50;26.77;;;6.85;;
56255;SDS011;57229;51.432;-2.598;2023-01-04T17:10:17;27.55;;;6.32;;
56255;SDS011;57229;51.432;-2.598;2023-01-04T17:12:53;26.30;;;5.45;;
56255;SDS011;57229;51.432;-2.598;2023-01-04T17:15:20;40.55;;;6.47;;
56255;SDS011;57229;51.432;-2.598;2023-01-04T17:17:56;24.90;;;6.20;;
56255;SDS011;57229;51.432;-2.598;2023-01-04T17:20:35;22.73;;;5.55;;
56255;SDS011;57229;51.432;-2.598;2023-01-04T17:25:28;27.42;;;7.40;;
56255;SDS011;57229;51.432;-2.598;2023-01-04T17:28:11;27.92;;;6.75;;
56255;SDS011;57229;51.432;-2.598;2023-01-04T17:30:38;35.22;;;6.03;;
56255;SDS011;57229;51.432;-2.598;2023-01-04T17:36:27;29.48;;;6.88;;
56255;SDS011;57229;51.432;-2.598;2023-01-04T17:38:53;36.15;;;7.07;;
56255;SDS011;57229;51.432;-2.598;2023-01-04T17:41:41;39.90;;;7.57;;
56255;SDS011;57229;51.432;-2.598;2023-01-04T17:44:11;40.47;;;7.13;;
56255;SDS011;57229;51.432;-2.598;2023-01-04T17:46:43;38.70;;;8.27;;
56255;SDS011;57229;51.432;-2.598;2023-01-04T17:49:12;40.35;;;8.43;;
56255;SDS011;57229;51.432;-2.598;2023-01-04T17:51:42;36.90;;;7.60;;
56255;SDS011;57229;51.432;-2.598;2023-01-04T17:54:09;30.58;;;6.97;;
56255;SDS011;57229;51.432;-2.598;2023-01-04T17:56:35;32.28;;;7.60;;
56255;SDS011;57229;51.432;-2.598;2023-01-04T17:59:03;31.88;;;6.28;;
56255;SDS011;57229;51.432;-2.598;2023-01-04T18:01:31;28.70;;;6.07;;
56255;SDS011;57229;51.432;-2.598;2023-01-04T18:04:06;31.52;;;6.75;;
56255;SDS011;57229;51.432;-2.598;2023-01-04T18:06:33;34.92;;;6.68;;
56255;SDS011;57229;51.432;-2.598;2023-01-04T18:09:01;27.00;;;6.20;;
56255;SDS011;57229;51.432;-2.598;2023-01-04T18:11:28;22.80;;;5.82;;
56255;SDS011;57229;51.432;-2.598;2023-01-04T18:13:54;28.45;;;7.00;;
56255;SDS011;57229;51.432;-2.598;2023-01-04T18:16:21;24.17;;;5.78;;
56255;SDS011;57229;51.432;-2.598;2023-01-04T18:18:55;29.38;;;6.93;;
56255;SDS011;57229;51.432;-2.598;2023-01-04T18:21:25;24.45;;;6.03;;
56255;SDS011;57229;51.432;-2.598;2023-01-04T18:24:02;26.65;;;5.75;;
56255;SDS011;57229;51.432;-2.598;2023-01-04T18:26:31;32.53;;;5.68;;
56255;SDS011;57229;51.432;-2.598;2023-01-04T18:29:11;28.52;;;6.22;;
56255;SDS011;57229;51.432;-2.598;2023-01-04T18:31:43;26.88;;;6.63;;
56255;SDS011;57229;51.432;-2.598;2023-01-04T18:34:15;30.73;;;6.43;;
56255;SDS011;57229;51.432;-2.598;2023-01-04T18:36:41;25.95;;;5.70;;
56255;SDS011;57229;51.432;-2.598;2023-01-04T18:39:08;23.50;;;5.97;;
56255;SDS011;57229;51.432;-2.598;2023-01-04T18:41:35;24.63;;;5.55;;
56255;SDS011;57229;51.432;-2.598;2023-01-04T18:44:02;24.10;;;5.80;;
56255;SDS011;57229;51.432;-2.598;2023-01-04T18:46:29;27.92;;;6.25;;
56255;SDS011;57229;51.432;-2.598;2023-01-04T18:48:55;28.17;;;5.70;;
56255;SDS011;57229;51.432;-2.598;2023-01-04T18:51:23;23.55;;;5.57;;
56255;SDS011;57229;51.432;-2.598;2023-01-04T18:53:51;23.35;;;6.32;;
56255;SDS011;57229;51.432;-2.598;2023-01-04T18:56:21;21.67;;;6.18;;
56255;SDS011;57229;51.432;-2.598;2023-01-04T18:58:49;20.60;;;5.35;;
56255;SDS011;57229;51.432;-2.598;2023-01-04T19:01:30;27.75;;;6.18;;
56255;SDS011;57229;51.432;-2.598;2023-01-04T19:03:58;24.83;;;5.82;;
56255;SDS011;57229;51.432;-2.598;2023-01-04T19:06:26;25.20;;;5.72;;
56255;SDS011;57229;51.432;-2.598;2023-01-04T19:08:53;24.83;;;5.72;;
56255;SDS011;57229;51.432;-2.598;2023-01-04T19:11:18;24.90;;;5.95;;
56255;SDS011;57229;51.432;-2.598;2023-01-04T19:13:44;31.85;;;6.18;;
56255;SDS011;57229;51.432;-2.598;2023-01-04T19:16:11;24.25;;;5.13;;
56255;SDS011;57229;51.432;-2.598;2023-01-04T19:18:38;22.42;;;6.35;;
56255;SDS011;57229;51.432;-2.598;2023-01-04T19:21:04;28.45;;;6.50;;
56255;SDS011;57229;51.432;-2.598;2023-01-04T19:23:35;27.92;;;6.43;;
56255;SDS011;57229;51.432;-2.598;2023-01-04T19:26:04;25.02;;;6.45;;
56255;SDS011;57229;51.432;-2.598;2023-01-04T19:28:31;26.27;;;5.85;;
56255;SDS011;57229;51.432;-2.598;2023-01-04T19:30:57;26.13;;;5.97;;
56255;SDS011;57229;51.432;-2.598;2023-01-04T19:33:26;24.73;;;7.03;;
56255;SDS011;57229;51.432;-2.598;2023-01-04T19:40:13;27.55;;;6.03;;
56255;SDS011;57229;51.432;-2.598;2023-01-04T19:42:40;24.83;;;6.25;;
56255;SDS011;57229;51.432;-2.598;2023-01-04T19:48:38;20.67;;;5.05;;
56255;SDS011;57229;51.432;-2.598;2023-01-04T19:51:13;27.48;;;6.15;;
56255;SDS011;57229;51.432;-2.598;2023-01-04T19:53:44;25.10;;;5.25;;
56255;SDS011;57229;51.432;-2.598;2023-01-04T19:56:31;27.50;;;5.43;;
56255;SDS011;57229;51.432;-2.598;2023-01-04T20:13:28;29.98;;;6.97;;
56255;SDS011;57229;51.432;-2.598;2023-01-04T20:15:57;28.88;;;7.90;;
56255;SDS011;57229;51.432;-2.598;2023-01-04T20:21:44;40.10;;;9.65;;
56255;SDS011;57229;51.432;-2.598;2023-01-04T20:24:10;38.67;;;10.98;;
56255;SDS011;57229;51.432;-2.598;2023-01-04T20:26:36;36.45;;;10.85;;
56255;SDS011;57229;51.432;-2.598;2023-01-04T20:37:23;68.05;;;23.60;;
56255;SDS011;57229;51.432;-2.598;2023-01-04T20:46:55;77.63;;;31.08;;
56255;SDS011;57229;51.432;-2.598;2023-01-04T20:49:26;93.90;;;31.08;;
56255;SDS011;57229;51.432;-2.598;2023-01-04T20:51:51;91.00;;;33.97;;
56255;SDS011;57229;51.432;-2.598;2023-01-04T20:54:17;81.93;;;34.70;;
56255;SDS011;57229;51.432;-2.598;2023-01-04T20:56:44;89.55;;;35.17;;
56255;SDS011;57229;51.432;-2.598;2023-01-04T20:59:12;96.90;;;36.63;;
56255;SDS011;57229;51.432;-2.598;2023-01-04T21:01:38;84.40;;;36.15;;
56255;SDS011;57229;51.432;-2.598;2023-01-04T21:04:07;90.20;;;36.22;;
56255;SDS011;57229;51.432;-2.598;2023-01-04T21:06:35;97.43;;;36.20;;
56255;SDS011;57229;51.432;-2.598;2023-01-04T21:09:23;93.18;;;36.22;;
56255;SDS011;57229;51.432;-2.598;2023-01-04T21:12:05;88.10;;;35.58;;
56255;SDS011;57229;51.432;-2.598;2023-01-04T21:14:34;92.72;;;36.08;;
56255;SDS011;57229;51.432;-2.598;2023-01-04T21:17:14;78.32;;;35.20;;
56255;SDS011;57229;51.432;-2.598;2023-01-04T21:19:42;86.40;;;36.00;;
56255;SDS011;57229;51.432;-2.598;2023-01-04T21:22:09;82.10;;;33.83;;
56255;SDS011;57229;51.432;-2.598;2023-01-04T21:24:34;86.78;;;35.33;;
56255;SDS011;57229;51.432;-2.598;2023-01-04T21:27:01;97.38;;;35.70;;
56255;SDS011;57229;51.432;-2.598;2023-01-04T21:29:31;90.32;;;34.95;;
56255;SDS011;57229;51.432;-2.598;2023-01-04T21:32:21;86.00;;;34.03;;
56255;SDS011;57229;51.432;-2.598;2023-01-04T21:34:51;67.38;;;30.67;;
56255;SDS011;57229;51.432;-2.598;2023-01-04T21:37:18;77.47;;;32.83;;
56255;SDS011;57229;51.432;-2.598;2023-01-04T21:39:49;73.30;;;32.25;;
56255;SDS011;57229;51.432;-2.598;2023-01-04T21:42:19;76.60;;;33.10;;
56255;SDS011;57229;51.432;-2.598;2023-01-04T21:45:31;69.65;;;30.25;;
56255;SDS011;57229;51.432;-2.598;2023-01-04T21:48:25;71.93;;;30.15;;
56255;SDS011;57229;51.432;-2.598;2023-01-04T21:50:52;75.80;;;30.05;;
56255;SDS011;57229;51.432;-2.598;2023-01-04T21:53:32;74.20;;;29.05;;
56255;SDS011;57229;51.432;-2.598;2023-01-04T21:56:25;65.88;;;28.63;;
56255;SDS011;57229;51.432;-2.598;2023-01-04T21:58:50;68.93;;;27.75;;
56255;SDS011;57229;51.432;-2.598;2023-01-04T22:01:17;66.63;;;26.85;;
56255;SDS011;57229;51.432;-2.598;2023-01-04T22:04:02;68.75;;;27.80;;
56255;SDS011;57229;51.432;-2.598;2023-01-04T22:06:38;60.42;;;25.35;;
56255;SDS011;57229;51.432;-2.598;2023-01-04T22:09:09;58.60;;;25.90;;
56255;SDS011;57229;51.432;-2.598;2023-01-04T22:11:37;56.28;;;25.05;;
56255;SDS011;57229;51.432;-2.598;2023-01-04T22:14:05;55.55;;;23.65;;
56255;SDS011;57229;51.432;-2.598;2023-01-04T22:16:32;55.60;;;24.33;;
56255;SDS011;57229;51.432;-2.598;2023-01-04T22:18:57;53.15;;;24.00;;
56255;SDS011;57229;51.432;-2.598;2023-01-04T22:21:23;55.92;;;23.92;;
56255;SDS011;57229;51.432;-2.598;2023-01-04T22:23:50;56.05;;;22.25;;
56255;SDS011;57229;51.432;-2.598;2023-01-04T22:26:16;51.35;;;20.88;;
56255;SDS011;57229;51.432;-2.598;2023-01-04T22:28:43;57.63;;;20.38;;
56255;SDS011;57229;51.432;-2.598;2023-01-04T22:31:28;47.05;;;20.23;;
56255;SDS011;57229;51.432;-2.598;2023-01-04T22:33:57;55.72;;;20.00;;
56255;SDS011;57229;51.432;-2.598;2023-01-04T22:36:25;50.28;;;19.88;;
56255;SDS011;57229;51.432;-2.598;2023-01-04T22:38:56;45.00;;;19.23;;
56255;SDS011;57229;51.432;-2.598;2023-01-04T22:41:28;42.28;;;18.25;;
56255;SDS011;57229;51.432;-2.598;2023-01-04T22:43:59;45.65;;;18.00;;
56255;SDS011;57229;51.432;-2.598;2023-01-04T22:46:57;44.38;;;18.50;;
56255;SDS011;57229;51.432;-2.598;2023-01-04T22:49:25;41.92;;;17.42;;
56255;SDS011;57229;51.432;-2.598;2023-01-04T22:51:55;50.22;;;17.95;;
56255;SDS011;57229;51.432;-2.598;2023-01-04T22:54:21;47.08;;;17.40;;
56255;SDS011;57229;51.432;-2.598;2023-01-04T22:56:47;43.35;;;16.35;;
56255;SDS011;57229;51.432;-2.598;2023-01-04T22:59:13;42.60;;;16.20;;
56255;SDS011;57229;51.432;-2.598;2023-01-04T23:01:39;41.10;;;16.50;;
56255;SDS011;57229;51.432;-2.598;2023-01-04T23:04:05;39.05;;;15.43;;
56255;SDS011;57229;51.432;-2.598;2023-01-04T23:06:32;42.00;;;15.52;;
56255;SDS011;57229;51.432;-2.598;2023-01-04T23:09:03;34.45;;;14.00;;
56255;SDS011;57229;51.432;-2.598;2023-01-04T23:11:31;38.25;;;14.18;;
56255;SDS011;57229;51.432;-2.598;2023-01-04T23:14:00;39.10;;;14.10;;
56255;SDS011;57229;51.432;-2.598;2023-01-04T23:16:30;37.17;;;14.35;;
56255;SDS011;57229;51.432;-2.598;2023-01-04T23:18:56;39.25;;;14.15;;
56255;SDS011;57229;51.432;-2.598;2023-01-04T23:21:22;30.48;;;12.63;;
56255;SDS011;57229;51.432;-2.598;2023-01-04T23:24:02;34.63;;;13.10;;
56255;SDS011;57229;51.432;-2.598;2023-01-04T23:26:33;35.40;;;12.55;;
56255;SDS011;57229;51.432;-2.598;2023-01-04T23:29:03;29.15;;;11.43;;
56255;SDS011;57229;51.432;-2.598;2023-01-04T23:31:31;30.58;;;11.35;;
56255;SDS011;57229;51.432;-2.598;2023-01-04T23:34:01;32.05;;;10.93;;
56255;SDS011;57229;51.432;-2.598;2023-01-04T23:36:31;28.95;;;11.25;;
56255;SDS011;57229;51.432;-2.598;2023-01-04T23:39:05;30.08;;;11.25;;
56255;SDS011;57229;51.432;-2.598;2023-01-04T23:41:33;35.55;;;11.07;;
56255;SDS011;57229;51.432;-2.598;2023-01-04T23:47:23;30.05;;;10.18;;
56255;SDS011;57229;51.432;-2.598;2023-01-04T23:49:56;30.65;;;10.38;;
56255;SDS011;57229;51.432;-2.598;2023-01-04T23:52:25;28.63;;;10.18;;
56255;SDS011;57229;51.432;-2.598;2023-01-04T23:54:57;27.33;;;9.27;;
56255;SDS011;57229;51.432;-2.598;2023-01-04T23:57:26;27.15;;;9.88;;
56255;SDS011;57229;51.432;-2.598;2023-01-04T23:59:53;26.83;;;9.43;;
